ADDS METAR Data INFO
IDs: Format: Raw Decoded Include TAF

Data at: 1151 UTC 23 Jun 2018

KTOL 231120Z AUTO 00000KT 9SM OVC016 19/18 A2968 RMK AO2 T01890178
KTOL 231107Z AUTO 00000KT 7SM BKN014 OVC026 19/18 A2967 RMK AO2 T01890178
KTOL 231052Z AUTO 00000KT 9SM SCT016 SCT021 OVC028 19/18 A2967 RMK AO2 RAE32 SLP044 P0002 T01890178
KTOL 231002Z AUTO 00000KT 8SM -RA FEW014 BKN026 OVC110 19/17 A2966 RMK AO2 P0002 T01890172
KTOL 230952Z AUTO 00000KT 5SM RA BR BKN014 BKN037 OVC110 18/17 A2966 RMK AO2 RAE0853B31 SLP040 P0004 T01830172
KTOL 230940Z AUTO 00000KT 5SM RA BR OVC014 19/18 A2966 RMK AO2 RAE0853B31 P0001 T01890178
KTOL 230924Z 00000KT 10SM SCT017 BKN022 OVC038 18/17 A2966 RMK AO2 RAE0853 P0000 T01830172
KTOL 230909Z 10003KT 10SM VCTS BKN021 BKN029 OVC038 19/17 A2966 RMK AO2 RAE0853 P0000 T01890172
KTOL 230900Z 08003KT 10SM BKN021 BKN027 OVC049 19/17 A2966 RMK AO2 RAE0853 P0000 T01890172
KTOL 230852Z 00000KT 10SM -RA SCT021 BKN042 OVC065 19/18 A2966 RMK AO2 SLP039 P0002 60018 T01890178 56008
KTOL 230752Z 00000KT 7SM -RA BKN120 19/18 A2966 RMK AO2 SLP040 P0006 T01890178
KTOL 230652Z 12004KT 4SM RA BR FEW013 BKN075 OVC100 19/18 A2967 RMK AO2 SLP043 P0010 T01940183
KTOL 230644Z VRB04KT 3SM VCTS -RA BR SCT013 BKN037 OVC095 19/18 A2967 RMK AO2 P0008 T01940183
KTOL 230642Z 12005KT 2 1/2SM VCTS -RA BR BKN013 BKN035 OVC090 19/18 A2967 RMK AO2 P0007 T01940183
KTOL 230631Z 14003KT 4SM VCTS -RA BR BKN013 BKN033 OVC100 19/18 A2968 RMK AO2 P0004 T01940183
KTOL 230629Z 12003KT 2 1/2SM -RA BR BKN013 BKN031 OVC100 19/18 A2968 RMK AO2 P0004 T01940183
KTOL 230619Z 14003KT 2 1/2SM -RA BR BKN015 BKN120 19/18 A2968 RMK AO2 P0000 T01940183
KTOL 230552Z 00000KT 3SM -RA BR FEW110 19/18 A2968 RMK AO2 RAB32 SLP047 P0000 60000 T01890178 10206 20189 58003
KTOL 230534Z 00000KT 3SM -RA BR SCT005 BKN110 19/18 A2968 RMK AO2 LTG DSNT S RAB32 P0000 T01890178
KTOL 230452Z 00000KT 4SM BR OVC004 19/18 A2969 RMK AO2 SLP049 T01940178 402390194
KTOL 230352Z 36004KT 5SM BR BKN004 OVC010 19/18 A2969 RMK AO2 SLP051 T01940183
KTOL 230350Z 35004KT 5SM BR BKN004 BKN010 OVC014 19/18 A2969 RMK AO2
KTOL 230341Z 34005KT 6SM BR SCT004 BKN010 OVC014 20/19 A2969 RMK AO2 T02000189
KTOL 230322Z 07004KT 6SM BR BKN004 OVC009 20/19 A2969 RMK AO2 T02000189
KTOL 230252Z 05003KT 7SM OVC005 20/19 A2970 RMK AO2 SLP054 T02000189 55002
KTOL 230152Z 06008KT 5SM BR OVC005 20/19 A2969 RMK AO2 SLP049 T02000189
KTOL 230052Z 06008KT 6SM BR OVC007 20/19 A2969 RMK AO2 SLP051 T02000189
KTOL 222352Z 08008KT 6SM BR OVC006 20/18 A2971 RMK AO2 RAB33E50 SLP056 P0000 60006 T02000183 10206 20194 55004
KTOL 222252Z 07012KT 4SM BR OVC005 19/18 A2970 RMK AO2 RAE39 SLP053 P0003 T01940183
KTOL 222152Z 07012G20KT 5SM -RA BR OVC007 20/18 A2971 RMK AO2 RAB2059E14B22 SLP057 P0000 T02000183
KTOL 222118Z 06011KT 8SM BKN008 OVC013 21/19 A2971 RMK AO2 RAB2059E14 P0000 T02060189
KTOL 222105Z 06010KT 9SM -RA SCT008 BKN013 OVC018 21/19 A2971 RMK AO2 RAB2059 P0000 T02060189
KTOL 222052Z 06012KT 10SM OVC011 20/18 A2972 RMK AO2 LTG DSNT SE RAE52 SLP060 P0001 60003 T02000183 58006
KTOL 221952Z 06013G20KT 10SM -RA BKN009 OVC016 19/18 A2973 RMK AO2 LTG DSNT S AND SW RAE18B51 SLP064 P0000 T01940178
KTOL 221852Z 06014KT 5SM -RA BR OVC009 19/18 A2973 RMK AO2 LTG DSNT S SLP065 P0002 T01940183
KTOL 221826Z 07011KT 4SM -RA BR BKN008 OVC013 20/18 A2974 RMK AO2 P0001 T02000183
KTOL 221803Z 06011KT 6SM -RA BR FEW008 BKN014 OVC019 20/18 A2974 RMK AO2 P0000 T02000183
KTOL 221752Z 06011KT 3SM -RA BR BKN016 OVC021 20/18 A2974 RMK AO2 RAB1657 SLP066 P0017 60027 T02000183 10239 20200 56007
KTOL 221750Z 06013KT 1 3/4SM -RA BR BKN014 OVC021 20/19 A2974 RMK AO2 VIS 3/4V5 RAB1657 P0017
KTOL 221747Z 05012G20KT 1SM -RA BR BKN016 OVC021 20/18 A2974 RMK AO2 RAB1657 P0017 RVRNO
KTOL 221740Z 06014G20KT 1 1/2SM +RA BR OVC016 21/18 A2974 RMK AO2 VIS 1/2V5 RAB1657 P0002 T02060183
KTOL 221652Z 07012KT 10SM OVC019 22/18 A2974 RMK AO2 RAE40 SLP068 P0006 T02170183
KTOL 221606Z 06007KT 3SM -RA BR OVC017 21/18 A2975 RMK AO2 P0006 T02060183
KTOL 221559Z 08007KT 1 3/4SM +RA BR OVC019 21/19 A2976 RMK AO2 P0003 T02060189
KTOL 221552Z 08006KT 3SM RA OVC019 21/18 A2976 RMK AO2 RAB05 SLP073 P0004 T02110183
KTOL 221452Z 09008KT 10SM OVC019 22/18 A2976 RMK AO2 SLP073 T02220178 58002
KTOL 221431Z 08010KT 10SM BKN019 BKN070 22/18 A2976 RMK AO2 T02220178
KTOL 221414Z 09011KT 10SM SCT021 SCT034 BKN070 23/18 A2976 RMK AO2 T02280178
KTOL 221352Z 08010KT 10SM OVC019 22/18 A2976 RMK AO2 SLP074 T02220178
KTOL 221252Z 08010G18KT 10SM OVC019 21/17 A2977 RMK AO2 SLP077 T02110172
KTOL 221223Z 08011G18KT 10SM BKN020 BKN090 OVC110 21/17 A2977 RMK AO2 T02110172
KTOL 221152Z 08011KT 10SM BKN030 BKN090 OVC110 21/17 A2977 RMK AO2 SLP076 60000 T02060167 10206 20200 51002
KTOL 221052Z AUTO 07012KT 10SM OVC090 21/16 A2977 RMK AO2 SLP075 T02060161
KTOL 220952Z AUTO 08006KT 10SM FEW044 OVC100 20/16 A2977 RMK AO2 SLP077 T02000156
KTOL 220852Z 07011KT 10SM BKN039 OVC110 20/15 A2976 RMK AO2 SLP074 60000 T02000150 56013
KTOL 220752Z 07014KT 10SM FEW065 20/14 A2977 RMK AO2 RAE09 SLP077 P0000 T02000139
KTOL 220652Z 07010G21KT 10SM -RA FEW050 OVC060 21/13 A2978 RMK AO2 RAB48 SLP081 P0000 T02060133
KTOL 220552Z 07013G24KT 10SM FEW050 SCT075 BKN090 21/14 A2980 RMK AO2 SLP087 60000 T02060144 10222 20206 58006
KTOL 220452Z 07012G20KT 10SM BKN050 21/15 A2981 RMK AO2 RAE06 SLP090 P0000 T02110150 402610161
KTOL 220352Z 07010G20KT 10SM -RA SCT110 21/16 A2981 RMK AO2 RAB40 SLP092 P0000 T02060156
KTOL 220252Z 08011KT 10SM FEW065 BKN100 21/16 A2982 RMK AO2 SLP093 T02110156 53005
KTOL 220152Z 07010KT 10SM FEW075 SCT110 21/14 A2981 RMK AO2 SLP090 T02110144
KTOL 220052Z 08010KT 10SM BKN095 BKN110 22/14 A2981 RMK AO2 SLP092 T02170144
KTOL 212352Z 08012KT 10SM CLR 22/13 A2980 RMK AO2 SLP089 T02220128 10261 20222 51003